createdAt,value
2018-04-06T00:01:43.178Z,100301.50
2018-04-06T00:04:16.835Z,100310.58
2018-04-06T00:06:51.733Z,100307.33
2018-04-06T00:09:26.919Z,100318.78
2018-04-06T00:12:01.084Z,100322.23
2018-04-06T00:14:50.826Z,100329.47
2018-04-06T00:17:25.271Z,100329.80
2018-04-06T00:19:59.923Z,100324.96
2018-04-06T00:22:36.517Z,100322.95
2018-04-06T00:25:12.276Z,100323.66
2018-04-06T00:27:47.386Z,100332.45
2018-04-06T00:35:23.996Z,100333.77
2018-04-06T00:43:59.105Z,100339.03
2018-04-06T00:49:34.255Z,100343.35
2018-04-06T00:52:08.170Z,100348.67
2018-04-06T00:54:42.452Z,100353.06
2018-04-06T00:57:16.437Z,100351.52
2018-04-06T00:59:50.929Z,100353.00
2018-04-06T01:02:25.541Z,100359.88
2018-04-06T01:04:59.563Z,100354.28
2018-04-06T01:07:34.239Z,100354.83
2018-04-06T01:10:08.880Z,100354.15
2018-04-06T01:14:07.786Z,100357.77
2018-04-06T01:16:42.587Z,100369.42
2018-04-06T01:25:36.901Z,100366.30
2018-04-06T01:28:22.152Z,100367.72
2018-04-06T01:31:00.530Z,100367.06
2018-04-06T01:36:50.471Z,100373.16
2018-04-06T01:39:24.549Z,100375.84
2018-04-06T01:42:07.858Z,100381.99
2018-04-06T01:44:42.558Z,100387.17
2018-04-06T01:47:17.894Z,100378.93
2018-04-06T01:49:51.800Z,100387.71
2018-04-06T01:52:25.554Z,100388.66
2018-04-06T01:55:05.867Z,100387.00
2018-04-06T02:00:47.581Z,100392.08
2018-04-06T02:04:10.441Z,100391.36
2018-04-06T02:06:56.125Z,100389.80
2018-04-06T02:12:52.524Z,100395.78
2018-04-06T02:20:49.390Z,100393.91
2018-04-06T02:23:48.513Z,100396.78
2018-04-06T02:26:24.181Z,100386.96
2018-04-06T02:28:59.305Z,100394.19
2018-04-06T02:31:34.473Z,100392.89
2018-04-06T02:34:11.811Z,100392.13
2018-04-06T02:36:51.446Z,100392.99
2018-04-06T02:39:27.172Z,100390.45
2018-04-06T02:42:01.765Z,100392.48
2018-04-06T02:44:36.805Z,100392.87
2018-04-06T02:47:10.764Z,100400.20
2018-04-06T02:49:49.718Z,100403.61
2018-04-06T02:52:28.502Z,100397.34
2018-04-06T02:55:03.279Z,100393.90
2018-04-06T02:57:42.750Z,100391.92
2018-04-06T03:00:29.910Z,100403.22
2018-04-06T03:03:04.989Z,100407.83
2018-04-06T03:05:39.704Z,100407.58
2018-04-06T03:08:13.805Z,100411.48
2018-04-06T03:10:48.928Z,100409.85
2018-04-06T03:13:22.827Z,100407.91
2018-04-06T03:15:56.562Z,100415.47
2018-04-06T03:18:30.816Z,100415.55
2018-04-06T03:21:05.329Z,100427.13
2018-04-06T03:23:39.285Z,100428.30
2018-04-06T03:26:14.237Z,100425.61
2018-04-06T03:28:48.026Z,100428.73
2018-04-06T03:31:33.919Z,100432.53
2018-04-06T03:34:07.513Z,100439.97
2018-04-06T03:36:41.554Z,100434.92
2018-04-06T03:39:16.280Z,100439.70
2018-04-06T03:41:52.486Z,100439.63
2018-04-06T03:44:34.936Z,100442.17
2018-04-06T03:47:17.365Z,100442.56
2018-04-06T03:49:57.669Z,100444.39
2018-04-06T03:52:33.215Z,100449.59
2018-04-06T03:55:06.917Z,100455.23
2018-04-06T03:57:40.772Z,100452.22
2018-04-06T04:00:15.861Z,100445.52
2018-04-06T04:02:50.082Z,100451.07
2018-04-06T04:05:25.742Z,100454.45
2018-04-06T04:07:59.803Z,100457.49
2018-04-06T04:10:34.070Z,100456.67
2018-04-06T04:13:08.360Z,100460.55
2018-04-06T04:15:41.755Z,100454.30
2018-04-06T04:18:17.533Z,100470.52
2018-04-06T04:20:54.290Z,100466.92
2018-04-06T04:26:01.595Z,100470.05
2018-04-06T04:28:40.127Z,100474.48
2018-04-06T04:34:00.808Z,100483.89
2018-04-06T04:36:35.181Z,100476.04
2018-04-06T04:39:10.440Z,100475.68
2018-04-06T04:41:43.907Z,100482.27
2018-04-06T04:44:17.928Z,100485.64
2018-04-06T04:46:51.861Z,100482.56
2018-04-06T04:49:25.117Z,100473.95
2018-04-06T04:51:58.915Z,100477.77
2018-04-06T04:54:32.369Z,100478.95
2018-04-06T04:57:05.771Z,100486.80
2018-04-06T04:59:41.083Z,100493.48
2018-04-06T05:02:15.111Z,100495.17
2018-04-06T05:04:48.961Z,100505.39
2018-04-06T05:07:22.884Z,100507.04
2018-04-06T05:09:59.136Z,100506.26
2018-04-06T05:12:32.864Z,100506.97
2018-04-06T05:15:06.687Z,100506.42
2018-04-06T05:17:41.868Z,100513.20
2018-04-06T05:20:16.368Z,100515.31
2018-04-06T05:22:50.047Z,100509.56
2018-04-06T05:25:28.775Z,100503.84
2018-04-06T05:28:03.565Z,100505.52
2018-04-06T05:30:38.452Z,100509.27
2018-04-06T05:33:11.850Z,100509.07
2018-04-06T05:35:45.633Z,100511.57
2018-04-06T05:38:19.694Z,100516.56
2018-04-06T05:40:53.338Z,100519.36
2018-04-06T05:43:27.430Z,100506.47
2018-04-06T05:46:00.903Z,100521.86
2018-04-06T05:48:34.796Z,100522.77
2018-04-06T05:51:08.833Z,100516.25
2018-04-06T05:53:42.362Z,100521.34
2018-04-06T05:56:15.702Z,100532.36
2018-04-06T05:58:49.603Z,100527.00
2018-04-06T06:01:23.025Z,100526.85
2018-04-06T06:03:56.732Z,100528.44
2018-04-06T06:06:31.274Z,100526.13
2018-04-06T06:09:05.580Z,100532.41
2018-04-06T06:11:39.582Z,100533.59
2018-04-06T06:14:13.235Z,100535.12
2018-04-06T06:16:47.671Z,100529.01
2018-04-06T06:19:24.753Z,100529.28
2018-04-06T06:22:18.395Z,100541.75
2018-04-06T06:25:00.387Z,100539.81
2018-04-06T06:28:17.035Z,100533.06
2018-04-06T06:30:58.605Z,100535.79
2018-04-06T06:33:35.936Z,100535.23
2018-04-06T06:36:10.197Z,100540.80
2018-04-06T06:38:43.839Z,100541.11
2018-04-06T06:41:17.730Z,100535.13
2018-04-06T06:43:52.151Z,100551.21
2018-04-06T06:46:26.000Z,100554.34
2018-04-06T06:48:59.726Z,100557.45
2018-04-06T06:51:34.204Z,100547.38
2018-04-06T06:54:07.762Z,100551.52
2018-04-06T06:56:41.182Z,100558.30
2018-04-06T06:59:16.297Z,100557.06
2018-04-06T07:01:49.733Z,100551.89
2018-04-06T07:04:23.192Z,100555.01
2018-04-06T07:06:58.050Z,100544.92
2018-04-06T07:09:31.556Z,100560.24
2018-04-06T07:12:07.681Z,100558.74
2018-04-06T07:14:43.309Z,100556.19
2018-04-06T07:17:21.708Z,100557.95
2018-04-06T07:19:58.695Z,100549.92
2018-04-06T07:22:33.068Z,100543.55
2018-04-06T07:25:07.217Z,100533.35
2018-04-06T07:27:44.831Z,100547.00
2018-04-06T07:30:23.155Z,100544.86
2018-04-06T07:33:00.376Z,100545.35
2018-04-06T07:35:35.163Z,100544.47
2018-04-06T07:38:10.187Z,100544.88
2018-04-06T07:40:43.906Z,100541.58
2018-04-06T07:43:18.409Z,100534.61
2018-04-06T07:45:52.138Z,100540.33
2018-04-06T07:48:26.372Z,100542.22
2018-04-06T07:51:00.228Z,100546.25
2018-04-06T07:53:36.433Z,100544.53
2018-04-06T07:56:10.779Z,100545.13
2018-04-06T07:58:44.651Z,100536.17
2018-04-06T08:01:19.234Z,100539.38
2018-04-06T08:03:52.542Z,100539.30
2018-04-06T08:06:26.629Z,100539.30
2018-04-06T08:09:00.611Z,100548.23
2018-04-06T08:11:34.215Z,100547.56
2018-04-06T08:14:08.266Z,100549.53
2018-04-06T08:16:44.800Z,100545.81
2018-04-06T08:19:19.169Z,100550.63
2018-04-06T08:21:52.943Z,100553.23
2018-04-06T08:24:28.019Z,100549.07
2018-04-06T08:27:01.874Z,100543.94
2018-04-06T08:29:37.406Z,100543.55
2018-04-06T08:32:11.978Z,100543.00
2018-04-06T08:34:48.388Z,100540.14
2018-04-06T08:37:22.671Z,100542.83
2018-04-06T08:39:56.778Z,100542.70
2018-04-06T08:42:35.126Z,100541.13
2018-04-06T08:45:10.293Z,100530.13
2018-04-06T08:47:43.925Z,100540.27
2018-04-06T08:50:17.535Z,100529.37
2018-04-06T08:52:51.658Z,100530.00
2018-04-06T08:55:26.222Z,100528.95
2018-04-06T08:57:59.919Z,100530.50
2018-04-06T09:00:35.658Z,100532.39
2018-04-06T09:03:10.250Z,100538.10
2018-04-06T09:06:06.959Z,100527.61
2018-04-06T09:08:41.151Z,100525.57
2018-04-06T09:11:16.120Z,100525.02
2018-04-06T09:13:51.558Z,100517.54
2018-04-06T09:16:26.097Z,100514.69
2018-04-06T09:19:00.987Z,100514.47
2018-04-06T09:21:52.094Z,100517.87
2018-04-06T09:24:42.862Z,100520.36
2018-04-06T09:27:25.822Z,100518.43
2018-04-06T09:29:59.396Z,100517.96
2018-04-06T09:32:40.237Z,100515.48
2018-04-06T09:35:18.498Z,100510.28
2018-04-06T09:37:53.671Z,100501.48
2018-04-06T09:40:28.308Z,100497.09
2018-04-06T09:43:02.613Z,100500.53
2018-04-06T09:45:37.330Z,100499.50
2018-04-06T09:48:11.126Z,100493.14
2018-04-06T09:50:44.608Z,100496.18
2018-04-06T09:53:18.925Z,100489.11
2018-04-06T09:55:53.040Z,100487.72
2018-04-06T09:58:27.347Z,100482.05
2018-04-06T10:03:43.882Z,100476.63
2018-04-06T10:06:19.365Z,100480.63
2018-04-06T10:09:05.943Z,100475.35
2018-04-06T10:11:40.658Z,100465.61
2018-04-06T10:14:14.694Z,100467.47
2018-04-06T10:16:48.306Z,100464.17
2018-04-06T10:19:22.243Z,100457.37
2018-04-06T10:21:56.176Z,100456.58
2018-04-06T10:24:30.059Z,100453.81
2018-04-06T10:27:05.213Z,100448.05
2018-04-06T10:29:40.674Z,100450.25
2018-04-06T10:32:14.384Z,100442.72
2018-04-06T10:34:53.287Z,100442.14
2018-04-06T10:37:28.247Z,100438.72
2018-04-06T10:40:10.359Z,100434.69
2018-04-06T10:42:45.805Z,100429.64
2018-04-06T10:45:20.349Z,100432.38
2018-04-06T10:47:54.711Z,100420.23
2018-04-06T10:50:28.180Z,100419.16
2018-04-06T10:53:02.610Z,100421.94
2018-04-06T10:55:42.439Z,100419.02
2018-04-06T10:58:19.766Z,100413.20
2018-04-06T11:00:54.679Z,100418.25
2018-04-06T11:03:30.668Z,100418.77
2018-04-06T11:06:12.277Z,100409.23
2018-04-06T11:08:56.430Z,100410.94
2018-04-06T11:11:31.835Z,100406.30
2018-04-06T11:14:09.879Z,100392.24
2018-04-06T11:16:55.727Z,100388.30
2018-04-06T11:19:30.288Z,100384.10
2018-04-06T11:22:04.068Z,100383.45
2018-04-06T11:24:37.601Z,100386.41
2018-04-06T11:27:11.852Z,100379.82
2018-04-06T11:29:49.806Z,100378.08
2018-04-06T11:32:25.509Z,100370.14
2018-04-06T11:34:59.078Z,100374.05
2018-04-06T11:37:39.740Z,100371.33
2018-04-06T11:40:14.418Z,100366.74
2018-04-06T11:42:49.891Z,100361.06
2018-04-06T11:45:24.197Z,100354.67
2018-04-06T11:47:58.788Z,100354.14
2018-04-06T11:50:32.994Z,100357.16
2018-04-06T11:53:08.789Z,100352.39
2018-04-06T11:55:42.379Z,100351.98
2018-04-06T11:58:16.648Z,100351.81
2018-04-06T12:00:51.206Z,100339.38
2018-04-06T12:03:25.154Z,100337.20
2018-04-06T12:05:59.126Z,100335.75
2018-04-06T12:08:35.354Z,100322.41
2018-04-06T12:11:12.785Z,100323.95
2018-04-06T12:13:47.194Z,100323.78
2018-04-06T12:16:20.935Z,100324.31
2018-04-06T12:18:55.811Z,100326.45
2018-04-06T12:21:31.794Z,100326.86
2018-04-06T12:24:06.422Z,100314.61
2018-04-06T12:26:40.876Z,100306.96
2018-04-06T12:29:16.190Z,100301.34
2018-04-06T12:31:50.795Z,100291.55
2018-04-06T12:34:25.383Z,100291.48
2018-04-06T12:37:00.820Z,100284.15
2018-04-06T12:39:39.591Z,100287.28
2018-04-06T12:42:17.563Z,100278.84
2018-04-06T12:44:51.816Z,100279.51
2018-04-06T12:47:26.908Z,100278.30
2018-04-06T12:50:01.524Z,100274.86
2018-04-06T12:52:46.928Z,100274.44
2018-04-06T12:55:25.289Z,100271.20
2018-04-06T12:58:01.027Z,100268.70
2018-04-06T13:00:43.528Z,100272.80
2018-04-06T13:03:26.210Z,100273.66
2018-04-06T13:06:04.048Z,100265.50
2018-04-06T13:08:41.936Z,100268.88
2018-04-06T13:11:25.447Z,100262.40
2018-04-06T13:14:02.485Z,100265.18
2018-04-06T13:16:36.718Z,100262.55
2018-04-06T13:19:14.421Z,100257.98
2018-04-06T13:22:10.365Z,100252.55
2018-04-06T13:24:45.786Z,100256.50
2018-04-06T13:27:30.703Z,100245.47
2018-04-06T13:30:28.486Z,100242.66
2018-04-06T13:33:23.917Z,100238.59
2018-04-06T13:36:16.585Z,100238.69
2018-04-06T13:38:51.845Z,100227.59
2018-04-06T13:47:53.104Z,100216.20
2018-04-06T13:50:32.286Z,100215.66
2018-04-06T13:53:10.649Z,100217.25
2018-04-06T13:55:57.218Z,100206.88
2018-04-06T14:01:32.001Z,100198.17
2018-04-06T14:04:36.459Z,100200.64
2018-04-06T14:09:57.261Z,100191.66
2018-04-06T14:12:52.044Z,100191.36
2018-04-06T14:15:40.630Z,100182.75
2018-04-06T14:18:32.623Z,100175.75
2018-04-06T14:21:18.226Z,100172.53
2018-04-06T14:23:56.739Z,100179.91
2018-04-06T14:29:41.188Z,100172.06
2018-04-06T14:32:37.506Z,100176.55
2018-04-06T14:41:21.346Z,100169.86
2018-04-06T14:47:42.201Z,100164.65
2018-04-06T14:51:19.242Z,100164.69
2018-04-06T14:54:39.121Z,100151.55
2018-04-06T14:57:35.548Z,100147.33
2018-04-06T15:00:25.933Z,100154.26
2018-04-06T15:06:59.023Z,100149.73
2018-04-06T15:09:47.552Z,100144.94
2018-04-06T15:12:44.748Z,100150.85
2018-04-06T15:15:37.014Z,100142.56
2018-04-06T15:21:25.974Z,100138.00
2018-04-06T15:24:00.156Z,100130.83
2018-04-06T15:26:34.423Z,100137.20
2018-04-06T15:29:08.366Z,100127.55
2018-04-06T15:31:41.924Z,100124.40
2018-04-06T15:34:17.108Z,100126.06
2018-04-06T15:36:51.677Z,100126.04
2018-04-06T15:39:25.723Z,100128.67
2018-04-06T15:42:00.607Z,100115.59
2018-04-06T15:44:34.322Z,100115.70
2018-04-06T15:47:11.142Z,100121.28
2018-04-06T15:49:45.975Z,100115.34
2018-04-06T15:52:20.745Z,100120.21
2018-04-06T15:54:54.197Z,100115.61
2018-04-06T15:57:28.593Z,100117.49
2018-04-06T16:00:04.262Z,100116.77
2018-04-06T16:02:39.726Z,100109.50
2018-04-06T16:05:14.301Z,100119.09
2018-04-06T16:07:48.238Z,100113.41
2018-04-06T16:10:22.267Z,100105.48
2018-04-06T16:12:56.259Z,100107.56
2018-04-06T16:15:29.891Z,100098.77
2018-04-06T16:18:04.045Z,100101.87
2018-04-06T16:20:38.481Z,100104.66
2018-04-06T16:23:13.799Z,100104.20
2018-04-06T16:25:47.624Z,100106.00
2018-04-06T16:28:23.367Z,100090.25
2018-04-06T16:31:05.687Z,100097.91
2018-04-06T16:33:42.624Z,100089.96
2018-04-06T16:36:16.794Z,100098.03
2018-04-06T16:38:50.991Z,100093.88
2018-04-06T16:41:25.218Z,100090.47
2018-04-06T16:43:59.151Z,100089.75
2018-04-06T16:46:32.620Z,100090.86
2018-04-06T16:49:07.159Z,100093.75
2018-04-06T16:51:41.349Z,100086.73
2018-04-06T16:54:15.961Z,100088.80
2018-04-06T16:56:49.622Z,100089.68
2018-04-06T16:59:23.527Z,100090.95
2018-04-06T17:01:57.145Z,100081.39
2018-04-06T17:04:31.306Z,100090.95
2018-04-06T17:07:05.428Z,100093.80
2018-04-06T17:09:40.187Z,100092.39
2018-04-06T17:12:14.027Z,100095.98
2018-04-06T17:14:49.226Z,100097.20
2018-04-06T17:17:27.882Z,100091.56
2018-04-06T17:20:03.715Z,100095.14
2018-04-06T17:22:39.610Z,100092.27
2018-04-06T17:25:15.640Z,100093.52
2018-04-06T17:27:49.751Z,100097.73
2018-04-06T17:30:24.953Z,100091.20
2018-04-06T17:32:59.145Z,100096.23
2018-04-06T17:35:33.475Z,100092.67
2018-04-06T17:38:07.573Z,100097.95
2018-04-06T17:40:42.365Z,100100.12
2018-04-06T17:43:16.166Z,100095.53
2018-04-06T17:45:51.522Z,100104.25
2018-04-06T17:48:25.134Z,100105.56
2018-04-06T17:50:58.585Z,100106.27
2018-04-06T17:53:33.247Z,100105.55
2018-04-06T17:56:09.309Z,100103.48
2018-04-06T17:58:53.386Z,100104.11
2018-04-06T18:01:36.800Z,100111.61
2018-04-06T18:04:11.526Z,100110.25
2018-04-06T18:06:53.539Z,100110.12
2018-04-06T18:13:50.722Z,100114.13
2018-04-06T18:16:31.405Z,100117.31
2018-04-06T18:19:12.272Z,100111.02
2018-04-06T18:21:47.654Z,100101.45
2018-04-06T18:24:33.824Z,100098.14
2018-04-06T18:30:16.110Z,100102.14
2018-04-06T18:32:50.815Z,100112.28
2018-04-06T18:35:24.298Z,100105.11
2018-04-06T18:37:59.236Z,100105.22
2018-04-06T18:40:32.715Z,100104.13
2018-04-06T18:43:06.385Z,100109.61
2018-04-06T18:45:40.480Z,100106.36
2018-04-06T18:48:14.167Z,100110.37
2018-04-06T18:50:48.370Z,100112.06
2018-04-06T18:53:23.354Z,100114.47
2018-04-06T18:55:56.731Z,100117.69
2018-04-06T18:58:30.935Z,100124.00
2018-04-06T19:01:06.201Z,100121.31
2018-04-06T19:03:40.403Z,100117.06
2018-04-06T19:06:13.896Z,100120.28
2018-04-06T19:08:47.978Z,100124.91
2018-04-06T19:11:53.673Z,100125.28
2018-04-06T19:14:27.668Z,100119.91
2018-04-06T19:17:05.476Z,100120.15
2018-04-06T19:19:39.047Z,100115.85
2018-04-06T19:22:12.675Z,100118.87
2018-04-06T19:24:46.926Z,100119.23
2018-04-06T19:27:20.311Z,100122.81
2018-04-06T19:29:53.896Z,100128.91
2018-04-06T19:32:28.096Z,100119.63
2018-04-06T19:35:01.464Z,100121.28
2018-04-06T19:37:35.264Z,100116.05
2018-04-06T19:40:09.130Z,100110.92
2018-04-06T19:42:45.015Z,100117.07
2018-04-06T19:45:18.514Z,100113.62
2018-04-06T19:47:52.440Z,100112.80
2018-04-06T19:50:26.383Z,100105.88
2018-04-06T19:53:00.167Z,100109.80
2018-04-06T19:55:33.997Z,100110.03
2018-04-06T19:58:07.835Z,100111.30
2018-04-06T20:00:41.394Z,100106.26
2018-04-06T20:03:15.719Z,100099.44
2018-04-06T20:05:49.511Z,100108.13
2018-04-06T20:08:23.068Z,100103.91
2018-04-06T20:10:56.682Z,100100.95
2018-04-06T20:13:30.798Z,100106.50
2018-04-06T20:16:04.554Z,100107.11
2018-04-06T20:18:38.626Z,100106.16
2018-04-06T20:21:12.806Z,100104.39
2018-04-06T20:23:46.726Z,100104.25
2018-04-06T20:26:20.852Z,100098.22
2018-04-06T20:28:54.837Z,100096.65
2018-04-06T20:31:28.137Z,100102.63
2018-04-06T20:34:01.843Z,100097.16
2018-04-06T20:36:35.305Z,100090.00
2018-04-06T20:39:08.805Z,100089.39
2018-04-06T20:41:42.097Z,100090.28
2018-04-06T20:44:16.109Z,100082.06
2018-04-06T20:46:49.645Z,100087.64
2018-04-06T20:49:23.293Z,100080.56
2018-04-06T20:51:57.055Z,100081.00
2018-04-06T20:54:30.450Z,100084.64
2018-04-06T20:57:04.263Z,100077.55
2018-04-06T20:59:38.069Z,100073.27
2018-04-06T21:02:11.370Z,100065.36
2018-04-06T21:04:45.003Z,100069.03
2018-04-06T21:07:18.674Z,100060.00
2018-04-06T21:09:51.996Z,100062.38
2018-04-06T21:12:25.442Z,100056.39
2018-04-06T21:14:59.413Z,100052.78
2018-04-06T21:17:32.769Z,100050.16
2018-04-06T21:20:07.157Z,100045.67
2018-04-06T21:22:40.979Z,100045.23
2018-04-06T21:25:14.567Z,100044.21
2018-04-06T21:27:48.335Z,100041.98
2018-04-06T21:30:22.865Z,100035.51
2018-04-06T21:32:56.769Z,100042.80
2018-04-06T21:35:30.673Z,100042.80
2018-04-06T21:38:04.378Z,100038.05
2018-04-06T21:40:38.382Z,100043.77
2018-04-06T21:43:12.266Z,100035.98
2018-04-06T21:45:45.788Z,100043.80
2018-04-06T21:48:19.493Z,100041.56
2018-04-06T21:50:53.436Z,100032.62
2018-04-06T21:53:27.312Z,100038.70
2018-04-06T21:56:01.148Z,100035.95
2018-04-06T21:58:34.761Z,100037.84
2018-04-06T22:01:09.314Z,100032.27
2018-04-06T22:03:45.125Z,100025.81
2018-04-06T22:06:20.088Z,100023.73
2018-04-06T22:12:18.370Z,100014.92
2018-04-06T22:15:07.635Z,100014.98
2018-04-06T22:17:53.590Z,100024.45
2018-04-06T22:25:13.193Z,100015.39
2018-04-06T22:30:44.035Z,100006.53
2018-04-06T22:33:31.410Z,100011.64
2018-04-06T22:38:55.478Z,99999.96
2018-04-06T22:44:44.115Z,100000.72
2018-04-06T22:47:41.011Z,99994.10
2018-04-06T22:50:26.852Z,100000.34
2018-04-06T22:53:03.591Z,100000.25
2018-04-06T22:56:09.464Z,100000.78
2018-04-06T22:58:46.512Z,100004.81
2018-04-06T23:08:18.073Z,100002.59
2018-04-06T23:11:01.946Z,99999.80
2018-04-06T23:13:45.748Z,99994.54
2018-04-06T23:16:25.887Z,100001.09
2018-04-06T23:19:42.794Z,99998.78
2018-04-06T23:25:08.617Z,100001.97
2018-04-06T23:31:13.938Z,100006.00
2018-04-06T23:34:09.537Z,100003.31
2018-04-06T23:36:51.922Z,99999.14
2018-04-06T23:39:48.512Z,99997.91
2018-04-06T23:42:25.791Z,99994.42
2018-04-06T23:45:05.268Z,99990.29
2018-04-06T23:47:43.291Z,99981.21
2018-04-06T23:58:39.848Z,99980.70
